sensor_id;sensor_type;location;lat;lon;timestamp;temperature;humidity
4187;DHT22;2107;52.306;10.484;2022-08-01T00:02:19;18.30;99.90
4187;DHT22;2107;52.306;10.484;2022-08-01T00:04:46;18.30;99.90
4187;DHT22;2107;52.306;10.484;2022-08-01T00:07:14;18.20;99.90
4187;DHT22;2107;52.306;10.484;2022-08-01T00:09:41;18.20;99.90
4187;DHT22;2107;52.306;10.484;2022-08-01T00:12:08;18.20;99.90
4187;DHT22;2107;52.306;10.484;2022-08-01T00:14:35;18.30;99.90
4187;DHT22;2107;52.306;10.484;2022-08-01T00:17:02;18.30;99.90
4187;DHT22;2107;52.306;10.484;2022-08-01T00:19:29;18.30;99.90
4187;DHT22;2107;52.306;10.484;2022-08-01T00:21:56;18.40;99.90
4187;DHT22;2107;52.306;10.484;2022-08-01T00:24:24;18.40;99.90
4187;DHT22;2107;52.306;10.484;2022-08-01T00:26:51;18.40;99.90
4187;DHT22;2107;52.306;10.484;2022-08-01T00:29:18;18.40;99.90
4187;DHT22;2107;52.306;10.484;2022-08-01T00:31:45;18.40;99.90
4187;DHT22;2107;52.306;10.484;2022-08-01T00:34:12;18.50;99.90
4187;DHT22;2107;52.306;10.484;2022-08-01T00:36:39;18.50;99.90
4187;DHT22;2107;52.306;10.484;2022-08-01T00:39:06;18.50;99.90
4187;DHT22;2107;52.306;10.484;2022-08-01T00:41:34;18.50;99.90
4187;DHT22;2107;52.306;10.484;2022-08-01T00:44:04;18.60;99.90
4187;DHT22;2107;52.306;10.484;2022-08-01T00:46:31;18.70;99.90
4187;DHT22;2107;52.306;10.484;2022-08-01T00:49:00;18.60;99.90
4187;DHT22;2107;52.306;10.484;2022-08-01T00:51:27;18.70;99.90
4187;DHT22;2107;52.306;10.484;2022-08-01T00:53:55;18.60;99.90
4187;DHT22;2107;52.306;10.484;2022-08-01T00:56:25;18.60;99.90
4187;DHT22;2107;52.306;10.484;2022-08-01T00:58:54;18.50;99.90
4187;DHT22;2107;52.306;10.484;2022-08-01T01:01:22;18.50;99.90
4187;DHT22;2107;52.306;10.484;2022-08-01T01:03:50;18.50;99.90
4187;DHT22;2107;52.306;10.484;2022-08-01T01:06:28;18.60;99.90
4187;DHT22;2107;52.306;10.484;2022-08-01T01:09:15;18.60;99.90
4187;DHT22;2107;52.306;10.484;2022-08-01T01:11:48;18.50;99.90
4187;DHT22;2107;52.306;10.484;2022-08-01T01:14:23;18.60;99.90
4187;DHT22;2107;52.306;10.484;2022-08-01T01:16:54;18.60;99.90
4187;DHT22;2107;52.306;10.484;2022-08-01T01:19:24;18.60;99.90
4187;DHT22;2107;52.306;10.484;2022-08-01T01:22:14;18.70;99.90
4187;DHT22;2107;52.306;10.484;2022-08-01T01:24:49;18.70;99.90
4187;DHT22;2107;52.306;10.484;2022-08-01T01:27:28;18.70;99.90
4187;DHT22;2107;52.306;10.484;2022-08-01T01:29:58;18.60;99.90
4187;DHT22;2107;52.306;10.484;2022-08-01T01:32:31;18.60;99.90
4187;DHT22;2107;52.306;10.484;2022-08-01T01:35:02;18.70;99.90
4187;DHT22;2107;52.306;10.484;2022-08-01T01:37:33;18.60;99.90
4187;DHT22;2107;52.306;10.484;2022-08-01T01:40:02;18.60;99.90
4187;DHT22;2107;52.306;10.484;2022-08-01T01:42:30;18.60;99.90
4187;DHT22;2107;52.306;10.484;2022-08-01T01:45:00;18.60;99.90
4187;DHT22;2107;52.306;10.484;2022-08-01T01:47:29;18.60;99.90
4187;DHT22;2107;52.306;10.484;2022-08-01T01:49:58;18.50;99.90
4187;DHT22;2107;52.306;10.484;2022-08-01T01:52:28;18.60;99.90
4187;DHT22;2107;52.306;10.484;2022-08-01T01:54:56;18.60;99.90
4187;DHT22;2107;52.306;10.484;2022-08-01T01:57:26;18.50;99.90
4187;DHT22;2107;52.306;10.484;2022-08-01T01:59:54;18.60;99.90
4187;DHT22;2107;52.306;10.484;2022-08-01T02:02:24;18.60;99.90
4187;DHT22;2107;52.306;10.484;2022-08-01T02:04:51;18.50;99.90
4187;DHT22;2107;52.306;10.484;2022-08-01T02:07:21;18.60;99.90
4187;DHT22;2107;52.306;10.484;2022-08-01T02:09:49;18.60;99.90
4187;DHT22;2107;52.306;10.484;2022-08-01T02:12:19;18.70;99.90
4187;DHT22;2107;52.306;10.484;2022-08-01T02:14:48;18.60;99.90
4187;DHT22;2107;52.306;10.484;2022-08-01T02:17:17;18.60;99.90
4187;DHT22;2107;52.306;10.484;2022-08-01T02:19:46;18.60;99.90
4187;DHT22;2107;52.306;10.484;2022-08-01T02:22:18;18.60;99.90
4187;DHT22;2107;52.306;10.484;2022-08-01T02:24:50;18.60;99.90
4187;DHT22;2107;52.306;10.484;2022-08-01T02:27:23;18.60;99.90
4187;DHT22;2107;52.306;10.484;2022-08-01T02:29:55;18.60;99.90
4187;DHT22;2107;52.306;10.484;2022-08-01T02:32:26;18.60;99.90
4187;DHT22;2107;52.306;10.484;2022-08-01T02:34:57;18.60;99.90
4187;DHT22;2107;52.306;10.484;2022-08-01T02:37:26;18.60;99.90
4187;DHT22;2107;52.306;10.484;2022-08-01T02:39:54;18.70;99.90
4187;DHT22;2107;52.306;10.484;2022-08-01T02:42:23;18.60;99.90
4187;DHT22;2107;52.306;10.484;2022-08-01T02:44:53;18.60;99.90
4187;DHT22;2107;52.306;10.484;2022-08-01T02:47:22;18.60;99.90
4187;DHT22;2107;52.306;10.484;2022-08-01T02:49:51;18.60;99.90
4187;DHT22;2107;52.306;10.484;2022-08-01T02:52:21;18.60;99.90
4187;DHT22;2107;52.306;10.484;2022-08-01T02:54:49;18.60;99.90
4187;DHT22;2107;52.306;10.484;2022-08-01T02:57:18;18.60;99.90
4187;DHT22;2107;52.306;10.484;2022-08-01T02:59:48;18.60;99.90
4187;DHT22;2107;52.306;10.484;2022-08-01T03:02:16;18.50;99.90
4187;DHT22;2107;52.306;10.484;2022-08-01T03:04:44;18.50;99.90
4187;DHT22;2107;52.306;10.484;2022-08-01T03:07:12;18.60;99.90
4187;DHT22;2107;52.306;10.484;2022-08-01T03:09:43;18.50;99.90
4187;DHT22;2107;52.306;10.484;2022-08-01T03:12:13;18.50;99.90
4187;DHT22;2107;52.306;10.484;2022-08-01T03:14:43;18.50;99.90
4187;DHT22;2107;52.306;10.484;2022-08-01T03:17:11;18.50;99.90
4187;DHT22;2107;52.306;10.484;2022-08-01T03:19:39;18.50;99.90
4187;DHT22;2107;52.306;10.484;2022-08-01T03:22:07;18.50;99.90
4187;DHT22;2107;52.306;10.484;2022-08-01T03:24:35;18.50;99.90
4187;DHT22;2107;52.306;10.484;2022-08-01T03:27:06;18.50;99.90
4187;DHT22;2107;52.306;10.484;2022-08-01T03:29:34;18.50;99.90
4187;DHT22;2107;52.306;10.484;2022-08-01T03:32:03;18.50;99.90
4187;DHT22;2107;52.306;10.484;2022-08-01T03:34:31;18.50;99.90
4187;DHT22;2107;52.306;10.484;2022-08-01T03:37:02;18.50;99.90
4187;DHT22;2107;52.306;10.484;2022-08-01T03:39:34;18.40;99.90
4187;DHT22;2107;52.306;10.484;2022-08-01T03:42:09;18.40;99.90
4187;DHT22;2107;52.306;10.484;2022-08-01T03:44:39;18.40;99.90
4187;DHT22;2107;52.306;10.484;2022-08-01T03:47:08;18.40;99.90
4187;DHT22;2107;52.306;10.484;2022-08-01T03:49:41;18.40;99.90
4187;DHT22;2107;52.306;10.484;2022-08-01T03:52:09;18.40;99.90
4187;DHT22;2107;52.306;10.484;2022-08-01T03:54:46;18.40;99.90
4187;DHT22;2107;52.306;10.484;2022-08-01T03:57:15;18.40;99.90
4187;DHT22;2107;52.306;10.484;2022-08-01T03:59:43;18.40;99.90
4187;DHT22;2107;52.306;10.484;2022-08-01T04:02:12;18.40;99.90
4187;DHT22;2107;52.306;10.484;2022-08-01T04:04:40;18.40;99.90
4187;DHT22;2107;52.306;10.484;2022-08-01T04:07:22;18.30;99.90
4187;DHT22;2107;52.306;10.484;2022-08-01T04:09:49;18.30;99.90
4187;DHT22;2107;52.306;10.484;2022-08-01T04:12:18;18.40;99.90
4187;DHT22;2107;52.306;10.484;2022-08-01T04:14:45;18.40;99.90
4187;DHT22;2107;52.306;10.484;2022-08-01T04:17:13;18.50;99.90
4187;DHT22;2107;52.306;10.484;2022-08-01T04:19:40;18.40;99.90
4187;DHT22;2107;52.306;10.484;2022-08-01T04:22:08;18.40;99.90
4187;DHT22;2107;52.306;10.484;2022-08-01T04:24:36;18.40;99.90
4187;DHT22;2107;52.306;10.484;2022-08-01T04:27:08;18.40;99.90
4187;DHT22;2107;52.306;10.484;2022-08-01T04:29:38;18.40;99.90
4187;DHT22;2107;52.306;10.484;2022-08-01T04:32:07;18.40;99.90
4187;DHT22;2107;52.306;10.484;2022-08-01T04:34:39;18.40;99.90
4187;DHT22;2107;52.306;10.484;2022-08-01T04:37:08;18.50;99.90
4187;DHT22;2107;52.306;10.484;2022-08-01T04:39:37;18.40;99.90
4187;DHT22;2107;52.306;10.484;2022-08-01T04:42:06;18.40;99.90
4187;DHT22;2107;52.306;10.484;2022-08-01T04:44:33;18.40;99.90
4187;DHT22;2107;52.306;10.484;2022-08-01T04:47:03;18.50;99.90
4187;DHT22;2107;52.306;10.484;2022-08-01T04:49:31;18.60;99.90
4187;DHT22;2107;52.306;10.484;2022-08-01T04:51:58;18.60;99.90
4187;DHT22;2107;52.306;10.484;2022-08-01T04:54:26;18.60;99.90
4187;DHT22;2107;52.306;10.484;2022-08-01T04:56:53;18.60;99.90
4187;DHT22;2107;52.306;10.484;2022-08-01T04:59:21;18.60;99.90
4187;DHT22;2107;52.306;10.484;2022-08-01T05:02:08;18.60;99.90
4187;DHT22;2107;52.306;10.484;2022-08-01T05:04:37;18.50;99.90
4187;DHT22;2107;52.306;10.484;2022-08-01T05:07:04;18.50;99.90
4187;DHT22;2107;52.306;10.484;2022-08-01T05:09:31;18.50;99.90
4187;DHT22;2107;52.306;10.484;2022-08-01T05:11:58;18.50;99.90
4187;DHT22;2107;52.306;10.484;2022-08-01T05:14:27;18.60;99.90
4187;DHT22;2107;52.306;10.484;2022-08-01T05:16:54;18.60;99.90
4187;DHT22;2107;52.306;10.484;2022-08-01T05:19:23;18.70;99.90
4187;DHT22;2107;52.306;10.484;2022-08-01T05:21:50;18.70;99.90
4187;DHT22;2107;52.306;10.484;2022-08-01T05:24:17;18.80;99.90
4187;DHT22;2107;52.306;10.484;2022-08-01T05:26:44;18.90;99.90
4187;DHT22;2107;52.306;10.484;2022-08-01T05:29:11;18.90;99.90
4187;DHT22;2107;52.306;10.484;2022-08-01T05:31:38;19.00;99.90
4187;DHT22;2107;52.306;10.484;2022-08-01T05:34:05;18.90;99.90
4187;DHT22;2107;52.306;10.484;2022-08-01T05:36:33;18.90;99.90
4187;DHT22;2107;52.306;10.484;2022-08-01T05:39:00;18.90;99.90
4187;DHT22;2107;52.306;10.484;2022-08-01T05:41:27;18.90;99.90
4187;DHT22;2107;52.306;10.484;2022-08-01T05:43:54;18.90;99.90
4187;DHT22;2107;52.306;10.484;2022-08-01T05:46:21;18.90;99.90
4187;DHT22;2107;52.306;10.484;2022-08-01T05:48:48;19.00;99.90
4187;DHT22;2107;52.306;10.484;2022-08-01T05:51:15;19.10;99.90
4187;DHT22;2107;52.306;10.484;2022-08-01T05:53:43;19.20;99.90
4187;DHT22;2107;52.306;10.484;2022-08-01T05:56:10;19.20;99.90
4187;DHT22;2107;52.306;10.484;2022-08-01T05:58:37;19.30;99.90
4187;DHT22;2107;52.306;10.484;2022-08-01T06:01:04;19.40;99.90
4187;DHT22;2107;52.306;10.484;2022-08-01T06:03:31;19.60;99.90
4187;DHT22;2107;52.306;10.484;2022-08-01T06:05:59;20.20;99.90
4187;DHT22;2107;52.306;10.484;2022-08-01T06:08:25;20.40;99.90
4187;DHT22;2107;52.306;10.484;2022-08-01T06:10:54;20.30;99.90
4187;DHT22;2107;52.306;10.484;2022-08-01T06:13:21;20.20;99.90
4187;DHT22;2107;52.306;10.484;2022-08-01T06:15:48;20.00;99.90
4187;DHT22;2107;52.306;10.484;2022-08-01T06:18:15;20.20;99.90
4187;DHT22;2107;52.306;10.484;2022-08-01T06:20:42;20.10;99.90
4187;DHT22;2107;52.306;10.484;2022-08-01T06:23:10;20.00;99.90
4187;DHT22;2107;52.306;10.484;2022-08-01T06:25:37;19.90;99.90
4187;DHT22;2107;52.306;10.484;2022-08-01T06:28:05;19.90;99.90
4187;DHT22;2107;52.306;10.484;2022-08-01T06:30:32;20.00;99.90
4187;DHT22;2107;52.306;10.484;2022-08-01T06:32:59;20.30;99.90
4187;DHT22;2107;52.306;10.484;2022-08-01T06:35:26;20.60;99.90
4187;DHT22;2107;52.306;10.484;2022-08-01T06:37:55;20.70;99.90
4187;DHT22;2107;52.306;10.484;2022-08-01T06:40:22;20.50;99.90
4187;DHT22;2107;52.306;10.484;2022-08-01T06:42:49;20.40;99.90
4187;DHT22;2107;52.306;10.484;2022-08-01T06:45:17;20.30;99.90
4187;DHT22;2107;52.306;10.484;2022-08-01T06:47:48;20.10;99.90
4187;DHT22;2107;52.306;10.484;2022-08-01T06:50:14;19.90;99.90
4187;DHT22;2107;52.306;10.484;2022-08-01T06:52:41;19.90;99.90
4187;DHT22;2107;52.306;10.484;2022-08-01T06:55:09;20.00;99.90
4187;DHT22;2107;52.306;10.484;2022-08-01T06:57:36;20.10;99.90
4187;DHT22;2107;52.306;10.484;2022-08-01T07:00:04;20.20;99.90
4187;DHT22;2107;52.306;10.484;2022-08-01T07:02:35;20.20;99.90
4187;DHT22;2107;52.306;10.484;2022-08-01T07:05:02;20.10;99.90
4187;DHT22;2107;52.306;10.484;2022-08-01T07:07:30;19.90;99.90
4187;DHT22;2107;52.306;10.484;2022-08-01T07:09:57;19.70;99.90
4187;DHT22;2107;52.306;10.484;2022-08-01T07:12:23;19.70;99.90
4187;DHT22;2107;52.306;10.484;2022-08-01T07:14:50;19.70;99.90
4187;DHT22;2107;52.306;10.484;2022-08-01T07:17:17;19.60;99.90
4187;DHT22;2107;52.306;10.484;2022-08-01T07:19:47;19.60;99.90
4187;DHT22;2107;52.306;10.484;2022-08-01T07:22:14;19.60;99.90
4187;DHT22;2107;52.306;10.484;2022-08-01T07:24:41;19.80;99.90
4187;DHT22;2107;52.306;10.484;2022-08-01T07:27:08;19.90;99.90
4187;DHT22;2107;52.306;10.484;2022-08-01T07:29:35;20.10;99.90
4187;DHT22;2107;52.306;10.484;2022-08-01T07:32:02;20.40;99.90
4187;DHT22;2107;52.306;10.484;2022-08-01T07:34:29;20.90;99.90
4187;DHT22;2107;52.306;10.484;2022-08-01T07:36:57;21.60;99.90
4187;DHT22;2107;52.306;10.484;2022-08-01T07:39:24;22.10;99.90
4187;DHT22;2107;52.306;10.484;2022-08-01T07:41:51;22.30;99.90
4187;DHT22;2107;52.306;10.484;2022-08-01T07:44:18;22.10;99.90
4187;DHT22;2107;52.306;10.484;2022-08-01T07:46:45;21.60;99.90
4187;DHT22;2107;52.306;10.484;2022-08-01T07:49:12;21.40;99.90
4187;DHT22;2107;52.306;10.484;2022-08-01T07:51:39;21.60;99.90
4187;DHT22;2107;52.306;10.484;2022-08-01T07:54:07;21.80;99.90
4187;DHT22;2107;52.306;10.484;2022-08-01T07:56:34;21.70;99.90
4187;DHT22;2107;52.306;10.484;2022-08-01T07:59:01;21.90;99.90
4187;DHT22;2107;52.306;10.484;2022-08-01T08:01:28;22.10;99.90
4187;DHT22;2107;52.306;10.484;2022-08-01T08:03:55;22.70;99.90
4187;DHT22;2107;52.306;10.484;2022-08-01T08:06:22;22.80;99.90
4187;DHT22;2107;52.306;10.484;2022-08-01T08:08:49;23.30;99.90
4187;DHT22;2107;52.306;10.484;2022-08-01T08:11:17;23.80;99.90
4187;DHT22;2107;52.306;10.484;2022-08-01T08:13:44;24.10;99.90
4187;DHT22;2107;52.306;10.484;2022-08-01T08:16:11;24.10;99.90
4187;DHT22;2107;52.306;10.484;2022-08-01T08:18:37;24.10;99.90
4187;DHT22;2107;52.306;10.484;2022-08-01T08:21:04;23.90;99.90
4187;DHT22;2107;52.306;10.484;2022-08-01T08:23:31;23.80;99.90
4187;DHT22;2107;52.306;10.484;2022-08-01T08:26:12;23.80;99.90
4187;DHT22;2107;52.306;10.484;2022-08-01T08:28:40;24.10;99.90
4187;DHT22;2107;52.306;10.484;2022-08-01T08:31:07;23.90;99.90
4187;DHT22;2107;52.306;10.484;2022-08-01T08:33:34;24.80;99.90
4187;DHT22;2107;52.306;10.484;2022-08-01T08:36:01;25.30;99.90
4187;DHT22;2107;52.306;10.484;2022-08-01T08:38:28;25.40;99.90
4187;DHT22;2107;52.306;10.484;2022-08-01T08:40:56;25.20;99.90
4187;DHT22;2107;52.306;10.484;2022-08-01T08:43:25;25.00;99.90
4187;DHT22;2107;52.306;10.484;2022-08-01T08:45:53;25.10;99.90
4187;DHT22;2107;52.306;10.484;2022-08-01T08:48:21;25.30;99.90
4187;DHT22;2107;52.306;10.484;2022-08-01T08:50:49;25.60;99.90
4187;DHT22;2107;52.306;10.484;2022-08-01T08:53:18;25.60;99.90
4187;DHT22;2107;52.306;10.484;2022-08-01T08:55:46;25.60;99.90
4187;DHT22;2107;52.306;10.484;2022-08-01T08:58:13;25.40;99.90
4187;DHT22;2107;52.306;10.484;2022-08-01T09:00:41;25.00;99.90
4187;DHT22;2107;52.306;10.484;2022-08-01T09:03:10;24.20;99.90
4187;DHT22;2107;52.306;10.484;2022-08-01T09:05:37;23.90;99.90
4187;DHT22;2107;52.306;10.484;2022-08-01T09:08:06;23.80;99.90
4187;DHT22;2107;52.306;10.484;2022-08-01T09:10:34;23.40;99.90
4187;DHT22;2107;52.306;10.484;2022-08-01T09:13:06;23.50;99.90
4187;DHT22;2107;52.306;10.484;2022-08-01T09:15:41;23.60;99.90
4187;DHT22;2107;52.306;10.484;2022-08-01T09:18:25;23.40;99.90
4187;DHT22;2107;52.306;10.484;2022-08-01T09:21:11;23.20;99.90
4187;DHT22;2107;52.306;10.484;2022-08-01T09:23:40;23.10;99.90
4187;DHT22;2107;52.306;10.484;2022-08-01T09:26:08;23.40;99.90
4187;DHT22;2107;52.306;10.484;2022-08-01T09:28:36;23.90;99.90
4187;DHT22;2107;52.306;10.484;2022-08-01T09:31:07;24.00;99.90
4187;DHT22;2107;52.306;10.484;2022-08-01T09:33:53;24.10;99.90
4187;DHT22;2107;52.306;10.484;2022-08-01T09:36:22;24.40;99.90
4187;DHT22;2107;52.306;10.484;2022-08-01T09:38:49;24.90;99.90
4187;DHT22;2107;52.306;10.484;2022-08-01T09:41:17;25.20;99.90
4187;DHT22;2107;52.306;10.484;2022-08-01T09:43:49;25.50;99.90
4187;DHT22;2107;52.306;10.484;2022-08-01T09:46:16;25.30;99.90
4187;DHT22;2107;52.306;10.484;2022-08-01T09:49:03;25.60;99.90
4187;DHT22;2107;52.306;10.484;2022-08-01T09:51:33;25.90;99.90
4187;DHT22;2107;52.306;10.484;2022-08-01T09:54:01;26.10;99.90
4187;DHT22;2107;52.306;10.484;2022-08-01T09:56:37;26.10;99.90
4187;DHT22;2107;52.306;10.484;2022-08-01T09:59:04;26.20;99.90
4187;DHT22;2107;52.306;10.484;2022-08-01T10:01:46;26.40;99.90
4187;DHT22;2107;52.306;10.484;2022-08-01T10:04:16;26.40;99.90
4187;DHT22;2107;52.306;10.484;2022-08-01T10:06:46;26.20;99.90
4187;DHT22;2107;52.306;10.484;2022-08-01T10:09:15;25.30;99.90
4187;DHT22;2107;52.306;10.484;2022-08-01T10:11:52;24.80;99.90
4187;DHT22;2107;52.306;10.484;2022-08-01T10:14:22;24.30;99.90
4187;DHT22;2107;52.306;10.484;2022-08-01T10:16:51;24.70;99.90
4187;DHT22;2107;52.306;10.484;2022-08-01T10:19:21;24.90;99.90
4187;DHT22;2107;52.306;10.484;2022-08-01T10:21:49;24.70;99.90
4187;DHT22;2107;52.306;10.484;2022-08-01T10:24:19;24.80;99.90
4187;DHT22;2107;52.306;10.484;2022-08-01T10:26:48;24.40;99.90
4187;DHT22;2107;52.306;10.484;2022-08-01T10:29:15;24.40;99.90
4187;DHT22;2107;52.306;10.484;2022-08-01T10:31:44;24.70;99.90
4187;DHT22;2107;52.306;10.484;2022-08-01T10:34:11;25.10;99.90
4187;DHT22;2107;52.306;10.484;2022-08-01T10:36:42;25.40;99.90
4187;DHT22;2107;52.306;10.484;2022-08-01T10:39:11;25.90;99.90
4187;DHT22;2107;52.306;10.484;2022-08-01T10:41:38;25.70;99.90
4187;DHT22;2107;52.306;10.484;2022-08-01T10:44:07;25.90;99.90
4187;DHT22;2107;52.306;10.484;2022-08-01T10:46:37;26.40;99.90
4187;DHT22;2107;52.306;10.484;2022-08-01T10:49:08;26.30;99.90
4187;DHT22;2107;52.306;10.484;2022-08-01T10:51:37;26.80;99.90
4187;DHT22;2107;52.306;10.484;2022-08-01T10:54:07;27.00;99.90
4187;DHT22;2107;52.306;10.484;2022-08-01T10:56:44;27.20;99.90
4187;DHT22;2107;52.306;10.484;2022-08-01T10:59:15;27.00;99.90
4187;DHT22;2107;52.306;10.484;2022-08-01T11:01:55;26.90;99.90
4187;DHT22;2107;52.306;10.484;2022-08-01T11:04:33;26.70;99.90
4187;DHT22;2107;52.306;10.484;2022-08-01T11:07:05;26.70;99.90
4187;DHT22;2107;52.306;10.484;2022-08-01T11:09:41;26.50;99.90
4187;DHT22;2107;52.306;10.484;2022-08-01T11:12:09;26.20;99.90
4187;DHT22;2107;52.306;10.484;2022-08-01T11:15:20;26.30;99.90
4187;DHT22;2107;52.306;10.484;2022-08-01T11:17:54;26.30;99.90
4187;DHT22;2107;52.306;10.484;2022-08-01T11:20:23;26.50;99.90
4187;DHT22;2107;52.306;10.484;2022-08-01T11:23:23;26.20;99.90
4187;DHT22;2107;52.306;10.484;2022-08-01T11:26:17;26.50;99.90
4187;DHT22;2107;52.306;10.484;2022-08-01T11:28:46;26.90;99.90
4187;DHT22;2107;52.306;10.484;2022-08-01T11:31:33;27.10;99.90
4187;DHT22;2107;52.306;10.484;2022-08-01T11:34:00;27.00;99.90
4187;DHT22;2107;52.306;10.484;2022-08-01T11:36:27;26.60;99.90
4187;DHT22;2107;52.306;10.484;2022-08-01T11:39:15;26.40;99.90
4187;DHT22;2107;52.306;10.484;2022-08-01T11:41:45;25.50;99.90
4187;DHT22;2107;52.306;10.484;2022-08-01T11:44:14;25.50;99.90
4187;DHT22;2107;52.306;10.484;2022-08-01T11:46:51;25.30;99.90
4187;DHT22;2107;52.306;10.484;2022-08-01T11:49:30;25.00;99.90
4187;DHT22;2107;52.306;10.484;2022-08-01T11:52:00;24.60;99.90
4187;DHT22;2107;52.306;10.484;2022-08-01T11:54:28;24.80;99.90
4187;DHT22;2107;52.306;10.484;2022-08-01T11:56:59;25.20;99.90
4187;DHT22;2107;52.306;10.484;2022-08-01T11:59:26;25.70;99.90
4187;DHT22;2107;52.306;10.484;2022-08-01T12:01:54;26.10;99.90
4187;DHT22;2107;52.306;10.484;2022-08-01T12:04:21;26.80;99.90
4187;DHT22;2107;52.306;10.484;2022-08-01T12:06:48;27.30;99.90
4187;DHT22;2107;52.306;10.484;2022-08-01T12:09:18;26.80;99.90
4187;DHT22;2107;52.306;10.484;2022-08-01T12:11:46;27.10;99.90
4187;DHT22;2107;52.306;10.484;2022-08-01T12:14:20;27.00;99.90
4187;DHT22;2107;52.306;10.484;2022-08-01T12:16:51;26.50;99.90
4187;DHT22;2107;52.306;10.484;2022-08-01T12:19:20;26.60;99.90
4187;DHT22;2107;52.306;10.484;2022-08-01T12:22:09;26.80;99.90
4187;DHT22;2107;52.306;10.484;2022-08-01T12:24:36;27.10;99.90
4187;DHT22;2107;52.306;10.484;2022-08-01T12:27:04;27.00;99.90
4187;DHT22;2107;52.306;10.484;2022-08-01T12:29:34;27.00;99.90
4187;DHT22;2107;52.306;10.484;2022-08-01T12:32:02;26.90;99.90
4187;DHT22;2107;52.306;10.484;2022-08-01T12:34:29;27.20;99.90
4187;DHT22;2107;52.306;10.484;2022-08-01T12:37:00;27.30;99.90
4187;DHT22;2107;52.306;10.484;2022-08-01T12:39:34;27.60;99.90
4187;DHT22;2107;52.306;10.484;2022-08-01T12:42:01;28.10;99.90
4187;DHT22;2107;52.306;10.484;2022-08-01T12:44:31;29.00;99.90
4187;DHT22;2107;52.306;10.484;2022-08-01T12:47:00;29.50;99.90
4187;DHT22;2107;52.306;10.484;2022-08-01T12:49:28;29.80;99.90
4187;DHT22;2107;52.306;10.484;2022-08-01T12:51:55;29.60;99.90
4187;DHT22;2107;52.306;10.484;2022-08-01T12:54:22;29.30;99.90
4187;DHT22;2107;52.306;10.484;2022-08-01T12:56:51;27.80;99.90
4187;DHT22;2107;52.306;10.484;2022-08-01T12:59:20;28.10;99.90
4187;DHT22;2107;52.306;10.484;2022-08-01T13:01:49;28.50;99.90
4187;DHT22;2107;52.306;10.484;2022-08-01T13:04:18;28.50;99.90
4187;DHT22;2107;52.306;10.484;2022-08-01T13:06:45;28.90;99.90
4187;DHT22;2107;52.306;10.484;2022-08-01T13:09:12;29.10;99.90
4187;DHT22;2107;52.306;10.484;2022-08-01T13:11:40;29.10;97.60
4187;DHT22;2107;52.306;10.484;2022-08-01T13:14:07;29.10;38.30
4187;DHT22;2107;52.306;10.484;2022-08-01T13:16:45;29.50;99.90
4187;DHT22;2107;52.306;10.484;2022-08-01T13:19:12;29.90;99.90
4187;DHT22;2107;52.306;10.484;2022-08-01T13:21:53;29.70;99.90
4187;DHT22;2107;52.306;10.484;2022-08-01T13:24:25;28.50;99.90
4187;DHT22;2107;52.306;10.484;2022-08-01T13:26:54;28.60;99.90
4187;DHT22;2107;52.306;10.484;2022-08-01T13:29:30;28.30;99.90
4187;DHT22;2107;52.306;10.484;2022-08-01T13:31:57;27.80;99.90
4187;DHT22;2107;52.306;10.484;2022-08-01T13:34:31;27.40;99.90
4187;DHT22;2107;52.306;10.484;2022-08-01T13:37:00;27.40;99.90
4187;DHT22;2107;52.306;10.484;2022-08-01T13:39:28;28.20;99.90
4187;DHT22;2107;52.306;10.484;2022-08-01T13:42:07;28.80;99.90
4187;DHT22;2107;52.306;10.484;2022-08-01T13:44:34;29.20;99.90
4187;DHT22;2107;52.306;10.484;2022-08-01T13:47:02;30.00;99.90
4187;DHT22;2107;52.306;10.484;2022-08-01T13:49:29;31.30;99.90
4187;DHT22;2107;52.306;10.484;2022-08-01T13:51:56;31.70;99.90
4187;DHT22;2107;52.306;10.484;2022-08-01T13:54:24;32.10;99.90
4187;DHT22;2107;52.306;10.484;2022-08-01T13:56:52;30.70;99.90
4187;DHT22;2107;52.306;10.484;2022-08-01T13:59:19;30.00;99.90
4187;DHT22;2107;52.306;10.484;2022-08-01T14:01:46;29.30;99.90
4187;DHT22;2107;52.306;10.484;2022-08-01T14:04:13;28.40;99.90
4187;DHT22;2107;52.306;10.484;2022-08-01T14:06:40;28.00;99.90
4187;DHT22;2107;52.306;10.484;2022-08-01T14:09:08;27.40;99.90
4187;DHT22;2107;52.306;10.484;2022-08-01T14:11:36;27.20;99.90
4187;DHT22;2107;52.306;10.484;2022-08-01T14:14:03;27.70;99.90
4187;DHT22;2107;52.306;10.484;2022-08-01T14:16:30;28.00;99.90
4187;DHT22;2107;52.306;10.484;2022-08-01T14:18:57;28.30;99.90
4187;DHT22;2107;52.306;10.484;2022-08-01T14:21:24;28.40;99.90
4187;DHT22;2107;52.306;10.484;2022-08-01T14:23:50;28.00;99.90
4187;DHT22;2107;52.306;10.484;2022-08-01T14:26:17;27.70;99.90
4187;DHT22;2107;52.306;10.484;2022-08-01T14:28:46;27.30;99.90
4187;DHT22;2107;52.306;10.484;2022-08-01T14:31:13;27.50;99.90
4187;DHT22;2107;52.306;10.484;2022-08-01T14:33:40;27.30;99.90
4187;DHT22;2107;52.306;10.484;2022-08-01T14:36:07;27.50;99.90
4187;DHT22;2107;52.306;10.484;2022-08-01T14:38:34;27.40;99.90
4187;DHT22;2107;52.306;10.484;2022-08-01T14:41:01;27.70;99.90
4187;DHT22;2107;52.306;10.484;2022-08-01T14:43:28;28.10;99.90
4187;DHT22;2107;52.306;10.484;2022-08-01T14:45:58;28.00;99.90
4187;DHT22;2107;52.306;10.484;2022-08-01T14:48:25;27.90;99.90
4187;DHT22;2107;52.306;10.484;2022-08-01T14:50:52;28.70;99.90
4187;DHT22;2107;52.306;10.484;2022-08-01T14:53:19;29.30;99.90
4187;DHT22;2107;52.306;10.484;2022-08-01T14:55:46;29.30;99.90
4187;DHT22;2107;52.306;10.484;2022-08-01T14:58:13;29.20;99.90
4187;DHT22;2107;52.306;10.484;2022-08-01T15:00:40;29.50;99.90
4187;DHT22;2107;52.306;10.484;2022-08-01T15:03:08;29.10;99.90
4187;DHT22;2107;52.306;10.484;2022-08-01T15:05:35;27.80;99.90
4187;DHT22;2107;52.306;10.484;2022-08-01T15:08:03;27.90;99.90
4187;DHT22;2107;52.306;10.484;2022-08-01T15:10:30;28.30;99.90
4187;DHT22;2107;52.306;10.484;2022-08-01T15:12:58;28.70;99.90
4187;DHT22;2107;52.306;10.484;2022-08-01T15:15:27;29.00;99.90
4187;DHT22;2107;52.306;10.484;2022-08-01T15:17:54;28.70;99.90
4187;DHT22;2107;52.306;10.484;2022-08-01T15:20:22;28.70;99.90
4187;DHT22;2107;52.306;10.484;2022-08-01T15:22:49;28.10;99.90
4187;DHT22;2107;52.306;10.484;2022-08-01T15:25:16;28.40;99.90
4187;DHT22;2107;52.306;10.484;2022-08-01T15:27:42;27.90;99.90
4187;DHT22;2107;52.306;10.484;2022-08-01T15:30:10;27.70;99.90
4187;DHT22;2107;52.306;10.484;2022-08-01T15:32:37;27.10;99.90
4187;DHT22;2107;52.306;10.484;2022-08-01T15:35:06;26.60;99.90
4187;DHT22;2107;52.306;10.484;2022-08-01T15:37:37;26.60;99.90
4187;DHT22;2107;52.306;10.484;2022-08-01T15:40:04;26.40;99.90
4187;DHT22;2107;52.306;10.484;2022-08-01T15:42:31;26.30;99.90
4187;DHT22;2107;52.306;10.484;2022-08-01T15:44:58;26.40;99.90
4187;DHT22;2107;52.306;10.484;2022-08-01T15:47:26;26.50;99.90
4187;DHT22;2107;52.306;10.484;2022-08-01T15:49:53;26.40;99.90
4187;DHT22;2107;52.306;10.484;2022-08-01T15:52:25;26.20;99.90
4187;DHT22;2107;52.306;10.484;2022-08-01T15:54:53;26.30;99.90
4187;DHT22;2107;52.306;10.484;2022-08-01T15:57:20;26.40;99.90
4187;DHT22;2107;52.306;10.484;2022-08-01T15:59:47;26.20;99.90